sensor_id;sensor_type;location;lat;lon;timestamp;pressure;altitude;pressure_sealevel;temperature;humidity
36304;BME280;22335;49.800;8.596;2023-05-11T00:00:00;100280.31;;;19.52;47.35
36304;BME280;22335;49.800;8.596;2023-05-11T00:06:45;100285.75;;;19.48;47.09
36304;BME280;22335;49.800;8.596;2023-05-11T00:13:29;100288.06;;;19.34;47.25
36304;BME280;22335;49.800;8.596;2023-05-11T00:20:14;100278.25;;;18.75;48.05
36304;BME280;22335;49.800;8.596;2023-05-11T00:26:57;100273.66;;;18.46;48.38
36304;BME280;22335;49.800;8.596;2023-05-11T00:33:41;100278.41;;;18.58;48.51
36304;BME280;22335;49.800;8.596;2023-05-11T00:40:26;100277.84;;;18.64;48.46
36304;BME280;22335;49.800;8.596;2023-05-11T00:47:10;100280.03;;;18.59;48.70
36304;BME280;22335;49.800;8.596;2023-05-11T00:53:53;100278.25;;;18.75;48.56
36304;BME280;22335;49.800;8.596;2023-05-11T01:00:38;100262.69;;;18.83;48.35
36304;BME280;22335;49.800;8.596;2023-05-11T01:07:25;100272.81;;;18.91;48.28
36304;BME280;22335;49.800;8.596;2023-05-11T01:14:15;100268.19;;;18.95;48.47
36304;BME280;22335;49.800;8.596;2023-05-11T01:21:05;100276.66;;;18.86;48.66
36304;BME280;22335;49.800;8.596;2023-05-11T01:28:22;100271.56;;;18.43;49.03
36304;BME280;22335;49.800;8.596;2023-05-11T01:35:17;100271.41;;;18.39;49.25
36304;BME280;22335;49.800;8.596;2023-05-11T01:42:07;100274.00;;;18.44;49.14
36304;BME280;22335;49.800;8.596;2023-05-11T01:48:55;100268.31;;;18.41;48.90
36304;BME280;22335;49.800;8.596;2023-05-11T01:55:41;100272.09;;;18.36;49.13
36304;BME280;22335;49.800;8.596;2023-05-11T02:02:30;100275.19;;;18.23;49.45
36304;BME280;22335;49.800;8.596;2023-05-11T02:09:15;100278.59;;;18.07;49.65
36304;BME280;22335;49.800;8.596;2023-05-11T02:16:01;100231.44;;;17.83;49.50
36304;BME280;22335;49.800;8.596;2023-05-11T02:22:46;100289.09;;;18.14;49.63
36304;BME280;22335;49.800;8.596;2023-05-11T02:29:31;100287.81;;;18.11;49.61
36304;BME280;22335;49.800;8.596;2023-05-11T02:36:20;100207.81;;;17.64;49.69
36304;BME280;22335;49.800;8.596;2023-05-11T02:43:08;100217.66;;;17.74;50.14
36304;BME280;22335;49.800;8.596;2023-05-11T03:05:03;100279.44;;;17.07;51.24
36304;BME280;22335;49.800;8.596;2023-05-11T03:11:48;100280.97;;;16.87;51.74
36304;BME280;22335;49.800;8.596;2023-05-11T03:18:33;100281.69;;;16.66;51.90
36304;BME280;22335;49.800;8.596;2023-05-11T03:25:20;100281.88;;;16.52;52.54
36304;BME280;22335;49.800;8.596;2023-05-11T03:32:05;100281.31;;;16.85;50.98
36304;BME280;22335;49.800;8.596;2023-05-11T03:38:52;100290.25;;;16.73;51.88
36304;BME280;22335;49.800;8.596;2023-05-11T03:45:43;100283.19;;;17.02;51.75
36304;BME280;22335;49.800;8.596;2023-05-11T03:52:28;100272.31;;;17.26;51.17
36304;BME280;22335;49.800;8.596;2023-05-11T03:59:14;100278.97;;;17.55;51.14
36304;BME280;22335;49.800;8.596;2023-05-11T04:06:00;100263.59;;;17.45;51.38
36304;BME280;22335;49.800;8.596;2023-05-11T04:12:44;100286.09;;;17.35;51.61
36304;BME280;22335;49.800;8.596;2023-05-11T04:19:28;100282.38;;;17.01;52.03
36304;BME280;22335;49.800;8.596;2023-05-11T04:26:14;100276.09;;;16.83;52.79
36304;BME280;22335;49.800;8.596;2023-05-11T04:32:57;100285.84;;;16.90;52.71
36304;BME280;22335;49.800;8.596;2023-05-11T04:39:41;100299.13;;;16.96;52.82
36304;BME280;22335;49.800;8.596;2023-05-11T04:46:26;100280.97;;;16.87;52.96
36304;BME280;22335;49.800;8.596;2023-05-11T04:53:13;100303.84;;;16.96;52.94
36304;BME280;22335;49.800;8.596;2023-05-11T04:59:58;100307.28;;;16.93;53.00
36304;BME280;22335;49.800;8.596;2023-05-11T05:06:42;100304.38;;;16.89;53.72
36304;BME280;22335;49.800;8.596;2023-05-11T05:13:28;100311.81;;;16.97;53.46
36304;BME280;22335;49.800;8.596;2023-05-11T05:20:12;100320.03;;;17.15;53.39
36304;BME280;22335;49.800;8.596;2023-05-11T05:26:57;100311.41;;;17.16;53.26
36304;BME280;22335;49.800;8.596;2023-05-11T05:33:41;100321.16;;;17.14;53.55
36304;BME280;22335;49.800;8.596;2023-05-11T05:40:24;100333.41;;;17.04;53.82
36304;BME280;22335;49.800;8.596;2023-05-11T05:47:11;100323.03;;;17.01;53.94
36304;BME280;22335;49.800;8.596;2023-05-11T05:53:55;100347.41;;;16.99;54.06
36304;BME280;22335;49.800;8.596;2023-05-11T06:00:39;100301.31;;;16.65;54.12
36304;BME280;22335;49.800;8.596;2023-05-11T06:07:25;100346.28;;;16.91;54.36
36304;BME280;22335;49.800;8.596;2023-05-11T06:14:09;100348.22;;;16.91;54.23
36304;BME280;22335;49.800;8.596;2023-05-11T06:20:53;100360.09;;;16.91;54.43
36304;BME280;22335;49.800;8.596;2023-05-11T06:27:41;100341.91;;;16.81;54.55
36304;BME280;22335;49.800;8.596;2023-05-11T06:34:24;100351.50;;;16.84;54.68
36304;BME280;22335;49.800;8.596;2023-05-11T06:41:09;100349.41;;;16.81;54.91
36304;BME280;22335;49.800;8.596;2023-05-11T06:47:55;100348.28;;;16.82;54.83
36304;BME280;22335;49.800;8.596;2023-05-11T06:54:38;100347.63;;;16.85;55.15
36304;BME280;22335;49.800;8.596;2023-05-11T07:01:23;100344.81;;;16.94;54.85
36304;BME280;22335;49.800;8.596;2023-05-11T07:08:09;100304.88;;;16.82;55.08
36304;BME280;22335;49.800;8.596;2023-05-11T07:14:54;100350.53;;;17.27;54.80
36304;BME280;22335;49.800;8.596;2023-05-11T07:21:37;100355.34;;;17.39;54.62
36304;BME280;22335;49.800;8.596;2023-05-11T07:28:22;100358.94;;;17.39;54.71
36304;BME280;22335;49.800;8.596;2023-05-11T07:35:07;100361.38;;;17.41;54.69
36304;BME280;22335;49.800;8.596;2023-05-11T07:41:53;100344.44;;;17.13;54.61
36304;BME280;22335;49.800;8.596;2023-05-11T07:48:37;100362.34;;;17.36;54.85
36304;BME280;22335;49.800;8.596;2023-05-11T07:55:21;100357.59;;;17.45;54.69
36304;BME280;22335;49.800;8.596;2023-05-11T08:02:06;100347.16;;;17.51;54.34
36304;BME280;22335;49.800;8.596;2023-05-11T08:08:52;100342.78;;;17.50;54.51
36304;BME280;22335;49.800;8.596;2023-05-11T08:15:35;100354.97;;;17.49;54.95
36304;BME280;22335;49.800;8.596;2023-05-11T08:22:19;100355.78;;;17.49;54.99
36304;BME280;22335;49.800;8.596;2023-05-11T08:29:04;100297.34;;;17.30;55.09
36304;BME280;22335;49.800;8.596;2023-05-11T08:35:47;100337.25;;;17.50;55.05
36304;BME280;22335;49.800;8.596;2023-05-11T08:42:32;100348.00;;;17.81;54.88
36304;BME280;22335;49.800;8.596;2023-05-11T08:49:18;100352.25;;;18.00;55.24
36304;BME280;22335;49.800;8.596;2023-05-11T08:56:06;100330.72;;;17.84;54.79
36304;BME280;22335;49.800;8.596;2023-05-11T09:02:51;100357.50;;;18.13;54.96
36304;BME280;22335;49.800;8.596;2023-05-11T09:09:36;100354.53;;;18.18;54.91
36304;BME280;22335;49.800;8.596;2023-05-11T09:16:22;100346.91;;;18.15;54.76
36304;BME280;22335;49.800;8.596;2023-05-11T09:23:14;100352.75;;;18.35;54.77
36304;BME280;22335;49.800;8.596;2023-05-11T09:30:11;100346.13;;;18.48;54.39
36304;BME280;22335;49.800;8.596;2023-05-11T09:37:02;100353.53;;;18.56;54.38
36304;BME280;22335;49.800;8.596;2023-05-11T09:43:46;100359.44;;;18.67;54.63
36304;BME280;22335;49.800;8.596;2023-05-11T09:50:33;100339.31;;;18.79;54.80
36304;BME280;22335;49.800;8.596;2023-05-11T09:57:25;100342.88;;;18.79;54.68
36304;BME280;22335;49.800;8.596;2023-05-11T10:04:09;100344.41;;;18.89;54.33
36304;BME280;22335;49.800;8.596;2023-05-11T10:11:05;100343.72;;;18.92;54.58
36304;BME280;22335;49.800;8.596;2023-05-11T10:17:49;100346.88;;;19.15;54.41
36304;BME280;22335;49.800;8.596;2023-05-11T10:24:34;100347.56;;;19.12;54.42
36304;BME280;22335;49.800;8.596;2023-05-11T10:31:20;100311.84;;;18.98;54.47
36304;BME280;22335;49.800;8.596;2023-05-11T10:38:05;100344.94;;;19.28;54.11
36304;BME280;22335;49.800;8.596;2023-05-11T10:45:15;100289.47;;;19.16;54.16
36304;BME280;22335;49.800;8.596;2023-05-11T10:52:14;100321.94;;;19.52;53.54
36304;BME280;22335;49.800;8.596;2023-05-11T10:59:28;100321.56;;;19.53;53.65
36304;BME280;22335;49.800;8.596;2023-05-11T11:06:22;100337.88;;;19.55;53.81
36304;BME280;22335;49.800;8.596;2023-05-11T11:13:09;100331.28;;;19.72;53.58
36304;BME280;22335;49.800;8.596;2023-05-11T11:19:53;100327.81;;;19.75;53.24
36304;BME280;22335;49.800;8.596;2023-05-11T11:26:48;100312.53;;;19.56;53.61
36304;BME280;22335;49.800;8.596;2023-05-11T11:33:33;100320.97;;;19.60;53.80
36304;BME280;22335;49.800;8.596;2023-05-11T11:40:34;100307.00;;;19.56;53.27
36304;BME280;22335;49.800;8.596;2023-05-11T11:47:23;100306.78;;;19.62;53.36
36304;BME280;22335;49.800;8.596;2023-05-11T11:54:08;100302.13;;;19.78;53.17
36304;BME280;22335;49.800;8.596;2023-05-11T12:00:53;100305.28;;;19.76;52.90
36304;BME280;22335;49.800;8.596;2023-05-11T12:07:40;100298.63;;;19.93;53.51
36304;BME280;22335;49.800;8.596;2023-05-11T12:14:26;100287.72;;;20.00;53.10
36304;BME280;22335;49.800;8.596;2023-05-11T12:21:18;100291.81;;;19.91;52.96
36304;BME280;22335;49.800;8.596;2023-05-11T12:28:02;100292.69;;;20.07;52.55
36304;BME280;22335;49.800;8.596;2023-05-11T12:34:57;100266.34;;;20.01;52.82
36304;BME280;22335;49.800;8.596;2023-05-11T12:41:42;100289.63;;;20.40;52.28
36304;BME280;22335;49.800;8.596;2023-05-11T12:48:26;100284.53;;;20.42;51.88
36304;BME280;22335;49.800;8.596;2023-05-11T12:55:10;100264.69;;;20.56;51.39
36304;BME280;22335;49.800;8.596;2023-05-11T13:01:54;100281.09;;;20.77;51.20
36304;BME280;22335;49.800;8.596;2023-05-11T13:08:46;100208.31;;;20.56;50.59
36304;BME280;22335;49.800;8.596;2023-05-11T13:15:30;100257.72;;;20.94;51.03
36304;BME280;22335;49.800;8.596;2023-05-11T13:22:14;100260.22;;;20.99;51.01
36304;BME280;22335;49.800;8.596;2023-05-11T13:28:58;100260.13;;;20.95;50.73
36304;BME280;22335;49.800;8.596;2023-05-11T13:35:52;100243.44;;;20.95;50.86
36304;BME280;22335;49.800;8.596;2023-05-11T13:42:35;100253.75;;;21.11;50.55
36304;BME280;22335;49.800;8.596;2023-05-11T13:49:19;100247.19;;;21.19;50.53
36304;BME280;22335;49.800;8.596;2023-05-11T13:56:04;100233.56;;;21.14;50.87
36304;BME280;22335;49.800;8.596;2023-05-11T14:02:48;100243.00;;;21.09;50.91
36304;BME280;22335;49.800;8.596;2023-05-11T14:09:32;100248.44;;;21.06;51.29
36304;BME280;22335;49.800;8.596;2023-05-11T14:16:18;100241.75;;;20.91;51.21
36304;BME280;22335;49.800;8.596;2023-05-11T14:23:02;100245.88;;;20.81;51.73
36304;BME280;22335;49.800;8.596;2023-05-11T14:29:46;100250.38;;;20.70;52.77
36304;BME280;22335;49.800;8.596;2023-05-11T14:36:32;100246.94;;;20.61;53.42
36304;BME280;22335;49.800;8.596;2023-05-11T14:43:16;100251.16;;;20.55;54.08
36304;BME280;22335;49.800;8.596;2023-05-11T14:49:59;100243.84;;;20.50;54.51
36304;BME280;22335;49.800;8.596;2023-05-11T14:56:45;100233.44;;;20.47;53.74
36304;BME280;22335;49.800;8.596;2023-05-11T15:03:34;100240.25;;;20.34;53.63
36304;BME280;22335;49.800;8.596;2023-05-11T15:10:17;100228.88;;;20.23;53.90
36304;BME280;22335;49.800;8.596;2023-05-11T15:17:02;100228.94;;;20.11;54.35
36304;BME280;22335;49.800;8.596;2023-05-11T15:23:46;100248.56;;;20.18;54.17
36304;BME280;22335;49.800;8.596;2023-05-11T15:30:30;100241.16;;;20.38;54.14
36304;BME280;22335;49.800;8.596;2023-05-11T15:37:14;100244.69;;;20.50;53.50
36304;BME280;22335;49.800;8.596;2023-05-11T15:43:58;100252.34;;;20.54;52.60
36304;BME280;22335;49.800;8.596;2023-05-11T15:50:41;100222.00;;;20.48;52.43
36304;BME280;22335;49.800;8.596;2023-05-11T15:57:26;100244.72;;;20.66;51.53
36304;BME280;22335;49.800;8.596;2023-05-11T16:04:10;100190.09;;;20.42;51.80
36304;BME280;22335;49.800;8.596;2023-05-11T16:10:53;100243.72;;;20.90;51.99
36304;BME280;22335;49.800;8.596;2023-05-11T16:17:38;100238.59;;;21.08;51.17
36304;BME280;22335;49.800;8.596;2023-05-11T16:24:21;100234.34;;;21.14;50.77
36304;BME280;22335;49.800;8.596;2023-05-11T16:31:05;100236.00;;;21.15;51.47
36304;BME280;22335;49.800;8.596;2023-05-11T16:37:51;100231.31;;;21.19;51.31
36304;BME280;22335;49.800;8.596;2023-05-11T16:44:36;100233.28;;;21.19;50.92
36304;BME280;22335;49.800;8.596;2023-05-11T16:51:19;100229.13;;;21.29;50.68
36304;BME280;22335;49.800;8.596;2023-05-11T16:58:04;100233.97;;;21.32;50.73
36304;BME280;22335;49.800;8.596;2023-05-11T17:04:48;100233.97;;;21.32;51.22
36304;BME280;22335;49.800;8.596;2023-05-11T17:11:31;100229.13;;;21.29;51.19
36304;BME280;22335;49.800;8.596;2023-05-11T17:18:18;100233.25;;;21.35;51.49
36304;BME280;22335;49.800;8.596;2023-05-11T17:25:01;100237.31;;;21.37;51.56
36304;BME280;22335;49.800;8.596;2023-05-11T17:31:46;100233.94;;;21.48;51.22
36304;BME280;22335;49.800;8.596;2023-05-11T17:38:32;100236.66;;;21.44;51.64
36304;BME280;22335;49.800;8.596;2023-05-11T17:45:16;100237.59;;;21.52;51.70
36304;BME280;22335;49.800;8.596;2023-05-11T17:52:00;100247.41;;;21.46;51.44
36304;BME280;22335;49.800;8.596;2023-05-11T17:58:45;100235.13;;;21.47;51.30
36304;BME280;22335;49.800;8.596;2023-05-11T18:05:29;100241.22;;;21.72;51.04
36304;BME280;22335;49.800;8.596;2023-05-11T18:12:17;100248.59;;;21.45;51.52
36304;BME280;22335;49.800;8.596;2023-05-11T18:19:01;100242.78;;;21.34;52.11
36304;BME280;22335;49.800;8.596;2023-05-11T18:25:45;100262.44;;;21.41;51.93
36304;BME280;22335;49.800;8.596;2023-05-11T18:32:29;100216.72;;;21.07;52.11
36304;BME280;22335;49.800;8.596;2023-05-11T18:39:13;100253.72;;;21.27;52.27
36304;BME280;22335;49.800;8.596;2023-05-11T18:45:57;100216.91;;;20.98;52.06
36304;BME280;22335;49.800;8.596;2023-05-11T18:52:41;100266.19;;;21.33;52.32
36304;BME280;22335;49.800;8.596;2023-05-11T18:59:25;100260.19;;;21.31;52.24
36304;BME280;22335;49.800;8.596;2023-05-11T19:06:10;100240.72;;;21.15;52.29
36304;BME280;22335;49.800;8.596;2023-05-11T19:12:54;100278.59;;;21.35;52.23
36304;BME280;22335;49.800;8.596;2023-05-11T19:19:39;100272.91;;;21.32;52.46
36304;BME280;22335;49.800;8.596;2023-05-11T19:26:22;100292.75;;;21.30;52.24
36304;BME280;22335;49.800;8.596;2023-05-11T19:33:06;100227.63;;;21.00;52.04
36304;BME280;22335;49.800;8.596;2023-05-11T19:39:51;100286.03;;;21.31;52.05
36304;BME280;22335;49.800;8.596;2023-05-11T19:46:38;100290.69;;;21.27;52.28
36304;BME280;22335;49.800;8.596;2023-05-11T19:53:27;100253.84;;;20.99;52.22
36304;BME280;22335;49.800;8.596;2023-05-11T20:00:12;100298.69;;;21.13;52.23
36304;BME280;22335;49.800;8.596;2023-05-11T20:06:58;100268.13;;;20.97;52.08
36304;BME280;22335;49.800;8.596;2023-05-11T20:13:41;100303.81;;;21.11;52.16
36304;BME280;22335;49.800;8.596;2023-05-11T20:20:27;100308.66;;;20.98;52.45
36304;BME280;22335;49.800;8.596;2023-05-11T20:27:10;100273.47;;;20.58;52.87
36304;BME280;22335;49.800;8.596;2023-05-11T20:33:53;100293.22;;;20.85;52.66
36304;BME280;22335;49.800;8.596;2023-05-11T20:40:41;100282.19;;;20.88;52.62
36304;BME280;22335;49.800;8.596;2023-05-11T20:47:24;100300.47;;;20.89;52.51
36304;BME280;22335;49.800;8.596;2023-05-11T20:54:08;100293.31;;;20.88;52.73
36304;BME280;22335;49.800;8.596;2023-05-11T21:00:54;100285.16;;;20.80;52.83
36304;BME280;22335;49.800;8.596;2023-05-11T21:07:37;100286.59;;;20.89;52.99
36304;BME280;22335;49.800;8.596;2023-05-11T21:14:21;100284.34;;;20.79;52.97
36304;BME280;22335;49.800;8.596;2023-05-11T21:21:06;100270.22;;;20.56;53.46
36304;BME280;22335;49.800;8.596;2023-05-11T21:27:50;100276.66;;;20.44;53.69
36304;BME280;22335;49.800;8.596;2023-05-11T21:34:33;100272.72;;;20.45;53.67
36304;BME280;22335;49.800;8.596;2023-05-11T21:41:18;100270.81;;;20.49;53.70
36304;BME280;22335;49.800;8.596;2023-05-11T21:48:02;100266.44;;;20.48;53.84
36304;BME280;22335;49.800;8.596;2023-05-11T21:54:46;100186.25;;;20.03;53.82
36304;BME280;22335;49.800;8.596;2023-05-11T22:01:31;100124.59;;;19.66;53.65
36304;BME280;22335;49.800;8.596;2023-05-11T22:08:14;100276.97;;;20.55;53.82
36304;BME280;22335;49.800;8.596;2023-05-11T22:14:58;100275.69;;;20.53;53.88
36304;BME280;22335;49.800;8.596;2023-05-11T22:21:43;100261.13;;;20.43;53.79
36304;BME280;22335;49.800;8.596;2023-05-11T22:28:27;100268.66;;;20.43;53.82
36304;BME280;22335;49.800;8.596;2023-05-11T22:35:11;100275.84;;;20.44;53.93
36304;BME280;22335;49.800;8.596;2023-05-11T22:41:56;100260.25;;;20.39;54.18
36304;BME280;22335;49.800;8.596;2023-05-11T22:48:39;100277.72;;;20.40;54.02
36304;BME280;22335;49.800;8.596;2023-05-11T22:55:23;100210.25;;;19.95;54.18
36304;BME280;22335;49.800;8.596;2023-05-11T23:02:08;100267.59;;;20.32;54.11
36304;BME280;22335;49.800;8.596;2023-05-11T23:08:51;100277.78;;;20.27;54.07
36304;BME280;22335;49.800;8.596;2023-05-11T23:15:35;100272.69;;;20.01;54.58
36304;BME280;22335;49.800;8.596;2023-05-11T23:22:20;100234.16;;;19.59;54.98
36304;BME280;22335;49.800;8.596;2023-05-11T23:29:03;100265.94;;;19.62;55.00
36304;BME280;22335;49.800;8.596;2023-05-11T23:35:47;100270.03;;;19.52;55.35
36304;BME280;22335;49.800;8.596;2023-05-11T23:42:31;100249.25;;;19.34;55.53
36304;BME280;22335;49.800;8.596;2023-05-11T23:49:15;100225.13;;;19.22;55.31
36304;BME280;22335;49.800;8.596;2023-05-11T23:55:59;100253.72;;;19.51;55.31
